sensor_id;sensor_type;location;lat;lon;timestamp;temperature;humidity
39655;DHT22;25336;59.944;11.010;2023-06-04T00:01:40;13.20;53.20
39655;DHT22;25336;59.944;11.010;2023-06-04T00:04:06;13.10;53.40
39655;DHT22;25336;59.944;11.010;2023-06-04T00:06:32;13.10;53.50
39655;DHT22;25336;59.944;11.010;2023-06-04T00:08:57;13.00;53.60
39655;DHT22;25336;59.944;11.010;2023-06-04T00:11:23;13.40;53.80
39655;DHT22;25336;59.944;11.010;2023-06-04T00:13:49;12.90;53.80
39655;DHT22;25336;59.944;11.010;2023-06-04T00:16:14;12.80;54.00
39655;DHT22;25336;59.944;11.010;2023-06-04T00:18:40;12.80;54.10
39655;DHT22;25336;59.944;11.010;2023-06-04T00:21:06;12.70;54.10
39655;DHT22;25336;59.944;11.010;2023-06-04T00:23:31;12.70;54.10
39655;DHT22;25336;59.944;11.010;2023-06-04T00:25:57;12.60;54.30
39655;DHT22;25336;59.944;11.010;2023-06-04T00:28:23;12.60;55.00
39655;DHT22;25336;59.944;11.010;2023-06-04T00:30:48;12.50;54.50
39655;DHT22;25336;59.944;11.010;2023-06-04T00:33:14;13.80;55.20
39655;DHT22;25336;59.944;11.010;2023-06-04T00:35:40;12.40;54.70
39655;DHT22;25336;59.944;11.010;2023-06-04T00:38:05;12.40;54.90
39655;DHT22;25336;59.944;11.010;2023-06-04T00:40:31;12.40;54.90
39655;DHT22;25336;59.944;11.010;2023-06-04T00:42:56;12.40;55.10
39655;DHT22;25336;59.944;11.010;2023-06-04T00:45:23;12.30;55.10
39655;DHT22;25336;59.944;11.010;2023-06-04T00:47:51;12.30;55.20
39655;DHT22;25336;59.944;11.010;2023-06-04T00:50:17;12.30;55.30
39655;DHT22;25336;59.944;11.010;2023-06-04T00:52:43;12.30;55.60
39655;DHT22;25336;59.944;11.010;2023-06-04T00:55:10;12.30;55.60
39655;DHT22;25336;59.944;11.010;2023-06-04T00:57:37;12.30;55.80
39655;DHT22;25336;59.944;11.010;2023-06-04T01:00:03;12.30;55.90
39655;DHT22;25336;59.944;11.010;2023-06-04T01:02:31;12.30;56.00
39655;DHT22;25336;59.944;11.010;2023-06-04T01:07:27;12.30;56.50
39655;DHT22;25336;59.944;11.010;2023-06-04T01:09:56;12.30;55.80
39655;DHT22;25336;59.944;11.010;2023-06-04T01:12:22;12.30;55.70
39655;DHT22;25336;59.944;11.010;2023-06-04T01:14:51;12.20;55.50
39655;DHT22;25336;59.944;11.010;2023-06-04T01:17:26;12.20;55.70
39655;DHT22;25336;59.944;11.010;2023-06-04T01:20:32;12.10;56.00
39655;DHT22;25336;59.944;11.010;2023-06-04T01:25:47;12.10;56.20
39655;DHT22;25336;59.944;11.010;2023-06-04T01:28:15;12.00;55.60
39655;DHT22;25336;59.944;11.010;2023-06-04T01:30:44;12.00;55.80
39655;DHT22;25336;59.944;11.010;2023-06-04T01:33:16;12.00;55.80
39655;DHT22;25336;59.944;11.010;2023-06-04T01:35:41;12.00;56.00
39655;DHT22;25336;59.944;11.010;2023-06-04T01:38:07;11.90;55.80
39655;DHT22;25336;59.944;11.010;2023-06-04T01:40:33;11.90;55.80
39655;DHT22;25336;59.944;11.010;2023-06-04T01:43:00;11.90;55.80
39655;DHT22;25336;59.944;11.010;2023-06-04T01:45:27;11.90;55.80
39655;DHT22;25336;59.944;11.010;2023-06-04T01:47:53;12.20;55.90
39655;DHT22;25336;59.944;11.010;2023-06-04T01:50:19;11.90;55.60
39655;DHT22;25336;59.944;11.010;2023-06-04T01:52:45;12.00;55.50
39655;DHT22;25336;59.944;11.010;2023-06-04T01:55:12;11.90;55.40
39655;DHT22;25336;59.944;11.010;2023-06-04T01:57:40;11.90;55.40
39655;DHT22;25336;59.944;11.010;2023-06-04T02:00:08;11.90;55.20
39655;DHT22;25336;59.944;11.010;2023-06-04T02:02:35;12.00;55.40
39655;DHT22;25336;59.944;11.010;2023-06-04T02:05:03;12.00;55.30
39655;DHT22;25336;59.944;11.010;2023-06-04T02:07:28;12.00;55.20
39655;DHT22;25336;59.944;11.010;2023-06-04T02:09:56;12.00;55.10
39655;DHT22;25336;59.944;11.010;2023-06-04T02:12:22;12.00;55.10
39655;DHT22;25336;59.944;11.010;2023-06-04T02:14:48;12.00;55.20
39655;DHT22;25336;59.944;11.010;2023-06-04T02:17:13;12.00;55.10
39655;DHT22;25336;59.944;11.010;2023-06-04T02:19:40;12.00;55.10
39655;DHT22;25336;59.944;11.010;2023-06-04T02:22:11;12.10;55.20
39655;DHT22;25336;59.944;11.010;2023-06-04T02:24:38;11.90;55.10
39655;DHT22;25336;59.944;11.010;2023-06-04T02:27:05;11.90;55.00
39655;DHT22;25336;59.944;11.010;2023-06-04T02:29:32;11.90;54.80
39655;DHT22;25336;59.944;11.010;2023-06-04T02:31:57;11.90;54.60
39655;DHT22;25336;59.944;11.010;2023-06-04T02:34:23;11.90;54.40
39655;DHT22;25336;59.944;11.010;2023-06-04T02:36:51;12.00;54.30
39655;DHT22;25336;59.944;11.010;2023-06-04T02:39:18;12.00;54.20
39655;DHT22;25336;59.944;11.010;2023-06-04T02:41:43;12.00;54.10
39655;DHT22;25336;59.944;11.010;2023-06-04T02:44:09;12.70;54.20
39655;DHT22;25336;59.944;11.010;2023-06-04T02:46:36;12.00;53.70
39655;DHT22;25336;59.944;11.010;2023-06-04T02:49:02;12.10;53.70
39655;DHT22;25336;59.944;11.010;2023-06-04T02:51:28;12.10;53.50
39655;DHT22;25336;59.944;11.010;2023-06-04T02:53:54;11.90;53.20
39655;DHT22;25336;59.944;11.010;2023-06-04T02:56:20;12.10;53.30
39655;DHT22;25336;59.944;11.010;2023-06-04T02:59:04;12.10;53.20
39655;DHT22;25336;59.944;11.010;2023-06-04T03:01:30;12.10;53.20
39655;DHT22;25336;59.944;11.010;2023-06-04T03:03:56;12.20;53.00
39655;DHT22;25336;59.944;11.010;2023-06-04T03:06:23;11.30;52.30
39655;DHT22;25336;59.944;11.010;2023-06-04T03:08:49;12.20;52.60
39655;DHT22;25336;59.944;11.010;2023-06-04T03:11:16;12.20;52.50
39655;DHT22;25336;59.944;11.010;2023-06-04T03:13:42;12.30;52.50
39655;DHT22;25336;59.944;11.010;2023-06-04T03:16:07;12.10;52.20
39655;DHT22;25336;59.944;11.010;2023-06-04T03:18:37;12.40;52.20
39655;DHT22;25336;59.944;11.010;2023-06-04T03:21:04;12.50;52.10
39655;DHT22;25336;59.944;11.010;2023-06-04T03:23:30;12.50;51.90
39655;DHT22;25336;59.944;11.010;2023-06-04T03:25:57;12.50;51.90
39655;DHT22;25336;59.944;11.010;2023-06-04T03:28:23;12.60;51.90
39655;DHT22;25336;59.944;11.010;2023-06-04T03:30:49;12.60;51.90
39655;DHT22;25336;59.944;11.010;2023-06-04T03:33:15;12.70;51.90
39655;DHT22;25336;59.944;11.010;2023-06-04T03:35:41;12.70;51.70
39655;DHT22;25336;59.944;11.010;2023-06-04T03:38:07;12.50;51.40
39655;DHT22;25336;59.944;11.010;2023-06-04T03:40:33;12.80;51.30
39655;DHT22;25336;59.944;11.010;2023-06-04T03:42:59;13.70;51.80
39655;DHT22;25336;59.944;11.010;2023-06-04T03:45:25;12.80;51.30
39655;DHT22;25336;59.944;11.010;2023-06-04T03:47:52;12.90;51.40
39655;DHT22;25336;59.944;11.010;2023-06-04T03:50:18;12.90;51.20
39655;DHT22;25336;59.944;11.010;2023-06-04T03:52:44;12.90;51.00
39655;DHT22;25336;59.944;11.010;2023-06-04T03:55:10;13.00;51.10
39655;DHT22;25336;59.944;11.010;2023-06-04T03:57:36;13.00;51.00
39655;DHT22;25336;59.944;11.010;2023-06-04T04:00:05;13.00;51.10
39655;DHT22;25336;59.944;11.010;2023-06-04T04:02:31;13.00;51.00
39655;DHT22;25336;59.944;11.010;2023-06-04T04:04:57;13.00;50.90
39655;DHT22;25336;59.944;11.010;2023-06-04T04:07:23;13.10;50.90
39655;DHT22;25336;59.944;11.010;2023-06-04T04:09:50;12.70;50.60
39655;DHT22;25336;59.944;11.010;2023-06-04T04:12:16;13.10;50.80
39655;DHT22;25336;59.944;11.010;2023-06-04T04:14:42;13.10;50.70
39655;DHT22;25336;59.944;11.010;2023-06-04T04:17:08;13.10;50.70
39655;DHT22;25336;59.944;11.010;2023-06-04T04:19:34;13.10;50.60
39655;DHT22;25336;59.944;11.010;2023-06-04T04:22:00;13.20;50.60
39655;DHT22;25336;59.944;11.010;2023-06-04T04:24:27;13.20;50.60
39655;DHT22;25336;59.944;11.010;2023-06-04T04:26:53;13.20;50.60
39655;DHT22;25336;59.944;11.010;2023-06-04T04:29:22;13.30;50.50
39655;DHT22;25336;59.944;11.010;2023-06-04T04:31:53;13.30;50.50
39655;DHT22;25336;59.944;11.010;2023-06-04T04:34:26;13.30;50.30
39655;DHT22;25336;59.944;11.010;2023-06-04T04:36:52;13.30;50.30
39655;DHT22;25336;59.944;11.010;2023-06-04T04:39:24;13.30;50.20
39655;DHT22;25336;59.944;11.010;2023-06-04T04:41:51;13.40;50.20
39655;DHT22;25336;59.944;11.010;2023-06-04T04:44:17;13.40;50.10
39655;DHT22;25336;59.944;11.010;2023-06-04T04:46:42;13.40;50.10
39655;DHT22;25336;59.944;11.010;2023-06-04T04:49:08;13.40;50.00
39655;DHT22;25336;59.944;11.010;2023-06-04T04:51:34;13.40;49.90
39655;DHT22;25336;59.944;11.010;2023-06-04T04:54:00;13.40;49.80
39655;DHT22;25336;59.944;11.010;2023-06-04T04:56:26;13.50;49.50
39655;DHT22;25336;59.944;11.010;2023-06-04T04:58:52;13.50;49.30
39655;DHT22;25336;59.944;11.010;2023-06-04T05:01:18;13.50;49.10
39655;DHT22;25336;59.944;11.010;2023-06-04T05:03:44;13.50;49.30
39655;DHT22;25336;59.944;11.010;2023-06-04T05:06:10;13.50;49.30
39655;DHT22;25336;59.944;11.010;2023-06-04T05:08:36;13.50;49.20
39655;DHT22;25336;59.944;11.010;2023-06-04T05:11:01;13.60;49.20
39655;DHT22;25336;59.944;11.010;2023-06-04T05:13:27;13.70;49.20
39655;DHT22;25336;59.944;11.010;2023-06-04T05:15:52;13.70;48.90
39655;DHT22;25336;59.944;11.010;2023-06-04T05:18:19;13.70;48.80
39655;DHT22;25336;59.944;11.010;2023-06-04T05:20:46;13.70;48.50
39655;DHT22;25336;59.944;11.010;2023-06-04T05:23:12;13.80;48.20
39655;DHT22;25336;59.944;11.010;2023-06-04T05:25:38;13.80;48.10
39655;DHT22;25336;59.944;11.010;2023-06-04T05:28:04;13.80;47.90
39655;DHT22;25336;59.944;11.010;2023-06-04T05:30:32;13.90;47.90
39655;DHT22;25336;59.944;11.010;2023-06-04T05:33:00;13.90;48.00
39655;DHT22;25336;59.944;11.010;2023-06-04T05:35:25;14.00;47.60
39655;DHT22;25336;59.944;11.010;2023-06-04T05:37:51;14.00;47.70
39655;DHT22;25336;59.944;11.010;2023-06-04T05:40:19;14.00;47.60
39655;DHT22;25336;59.944;11.010;2023-06-04T05:42:47;14.10;47.60
39655;DHT22;25336;59.944;11.010;2023-06-04T05:45:12;14.70;47.80
39655;DHT22;25336;59.944;11.010;2023-06-04T05:47:38;14.20;47.60
39655;DHT22;25336;59.944;11.010;2023-06-04T05:50:04;14.20;47.40
39655;DHT22;25336;59.944;11.010;2023-06-04T05:52:32;14.20;47.30
39655;DHT22;25336;59.944;11.010;2023-06-04T05:54:58;15.00;47.50
39655;DHT22;25336;59.944;11.010;2023-06-04T05:57:24;14.70;47.30
39655;DHT22;25336;59.944;11.010;2023-06-04T05:59:49;14.40;47.10
39655;DHT22;25336;59.944;11.010;2023-06-04T06:02:15;14.50;47.10
39655;DHT22;25336;59.944;11.010;2023-06-04T06:04:41;14.50;46.90
39655;DHT22;25336;59.944;11.010;2023-06-04T06:07:07;14.60;46.70
39655;DHT22;25336;59.944;11.010;2023-06-04T06:09:33;14.50;46.60
39655;DHT22;25336;59.944;11.010;2023-06-04T06:11:58;14.60;46.70
39655;DHT22;25336;59.944;11.010;2023-06-04T06:14:24;14.90;46.60
39655;DHT22;25336;59.944;11.010;2023-06-04T06:16:50;14.60;46.30
39655;DHT22;25336;59.944;11.010;2023-06-04T06:19:16;14.70;46.10
39655;DHT22;25336;59.944;11.010;2023-06-04T06:21:42;14.70;46.00
39655;DHT22;25336;59.944;11.010;2023-06-04T06:24:07;14.80;45.80
39655;DHT22;25336;59.944;11.010;2023-06-04T06:26:33;14.80;45.70
39655;DHT22;25336;59.944;11.010;2023-06-04T06:28:59;14.90;45.50
39655;DHT22;25336;59.944;11.010;2023-06-04T06:31:25;14.90;45.60
39655;DHT22;25336;59.944;11.010;2023-06-04T06:33:51;14.90;45.50
39655;DHT22;25336;59.944;11.010;2023-06-04T06:36:17;15.00;45.40
39655;DHT22;25336;59.944;11.010;2023-06-04T06:38:44;15.60;45.70
39655;DHT22;25336;59.944;11.010;2023-06-04T06:41:10;15.10;45.20
39655;DHT22;25336;59.944;11.010;2023-06-04T06:43:36;15.10;45.10
39655;DHT22;25336;59.944;11.010;2023-06-04T06:46:05;15.10;45.10
39655;DHT22;25336;59.944;11.010;2023-06-04T06:48:30;15.20;45.00
39655;DHT22;25336;59.944;11.010;2023-06-04T06:50:56;15.20;44.90
39655;DHT22;25336;59.944;11.010;2023-06-04T06:53:22;15.30;44.90
39655;DHT22;25336;59.944;11.010;2023-06-04T06:55:47;15.30;44.60
39655;DHT22;25336;59.944;11.010;2023-06-04T06:58:13;15.40;44.30
39655;DHT22;25336;59.944;11.010;2023-06-04T07:00:39;15.40;44.20
39655;DHT22;25336;59.944;11.010;2023-06-04T07:03:04;15.40;44.20
39655;DHT22;25336;59.944;11.010;2023-06-04T07:05:30;15.50;44.30
39655;DHT22;25336;59.944;11.010;2023-06-04T07:07:56;16.10;44.60
39655;DHT22;25336;59.944;11.010;2023-06-04T07:10:23;15.50;44.10
39655;DHT22;25336;59.944;11.010;2023-06-04T07:12:49;15.60;43.90
39655;DHT22;25336;59.944;11.010;2023-06-04T07:15:15;15.60;43.80
39655;DHT22;25336;59.944;11.010;2023-06-04T07:17:41;15.70;43.90
39655;DHT22;25336;59.944;11.010;2023-06-04T07:20:07;15.70;43.90
39655;DHT22;25336;59.944;11.010;2023-06-04T07:22:34;15.70;43.80
39655;DHT22;25336;59.944;11.010;2023-06-04T07:25:00;15.80;44.40
39655;DHT22;25336;59.944;11.010;2023-06-04T07:27:26;15.80;43.80
39655;DHT22;25336;59.944;11.010;2023-06-04T07:29:52;15.90;43.50
39655;DHT22;25336;59.944;11.010;2023-06-04T07:32:17;16.00;43.20
39655;DHT22;25336;59.944;11.010;2023-06-04T07:34:43;16.00;43.10
39655;DHT22;25336;59.944;11.010;2023-06-04T07:37:09;16.10;42.50
39655;DHT22;25336;59.944;11.010;2023-06-04T07:39:35;16.10;41.40
39655;DHT22;25336;59.944;11.010;2023-06-04T07:42:01;16.10;41.90
39655;DHT22;25336;59.944;11.010;2023-06-04T07:44:27;16.20;41.40
39655;DHT22;25336;59.944;11.010;2023-06-04T07:46:53;16.20;41.50
39655;DHT22;25336;59.944;11.010;2023-06-04T07:49:18;16.20;40.70
39655;DHT22;25336;59.944;11.010;2023-06-04T07:51:45;16.30;41.10
39655;DHT22;25336;59.944;11.010;2023-06-04T07:54:11;16.40;41.20
39655;DHT22;25336;59.944;11.010;2023-06-04T07:56:38;16.40;40.70
39655;DHT22;25336;59.944;11.010;2023-06-04T07:59:04;16.40;40.90
39655;DHT22;25336;59.944;11.010;2023-06-04T08:01:29;16.50;41.00
39655;DHT22;25336;59.944;11.010;2023-06-04T08:03:56;16.50;40.90
39655;DHT22;25336;59.944;11.010;2023-06-04T08:06:21;16.60;40.30
39655;DHT22;25336;59.944;11.010;2023-06-04T08:08:49;16.70;40.20
39655;DHT22;25336;59.944;11.010;2023-06-04T08:11:15;16.80;40.20
39655;DHT22;25336;59.944;11.010;2023-06-04T08:13:41;16.80;39.50
39655;DHT22;25336;59.944;11.010;2023-06-04T08:16:08;16.90;39.10
39655;DHT22;25336;59.944;11.010;2023-06-04T08:18:38;16.90;39.10
39655;DHT22;25336;59.944;11.010;2023-06-04T08:21:04;17.00;38.70
39655;DHT22;25336;59.944;11.010;2023-06-04T08:23:29;17.00;38.70
39655;DHT22;25336;59.944;11.010;2023-06-04T08:25:55;17.10;38.00
39655;DHT22;25336;59.944;11.010;2023-06-04T08:28:22;17.20;37.80
39655;DHT22;25336;59.944;11.010;2023-06-04T08:30:47;17.20;37.00
39655;DHT22;25336;59.944;11.010;2023-06-04T08:33:13;17.20;37.20
39655;DHT22;25336;59.944;11.010;2023-06-04T08:35:38;17.30;37.40
39655;DHT22;25336;59.944;11.010;2023-06-04T08:38:04;17.30;36.90
39655;DHT22;25336;59.944;11.010;2023-06-04T08:40:30;17.40;37.10
39655;DHT22;25336;59.944;11.010;2023-06-04T08:42:56;17.50;37.40
39655;DHT22;25336;59.944;11.010;2023-06-04T08:45:25;17.60;36.60
39655;DHT22;25336;59.944;11.010;2023-06-04T08:47:52;17.60;36.80
39655;DHT22;25336;59.944;11.010;2023-06-04T08:50:20;17.70;37.00
39655;DHT22;25336;59.944;11.010;2023-06-04T08:52:46;17.80;36.50
39655;DHT22;25336;59.944;11.010;2023-06-04T08:55:13;17.90;36.10
39655;DHT22;25336;59.944;11.010;2023-06-04T08:57:40;18.00;36.00
39655;DHT22;25336;59.944;11.010;2023-06-04T09:00:06;18.20;36.00
39655;DHT22;25336;59.944;11.010;2023-06-04T09:02:35;18.10;35.60
39655;DHT22;25336;59.944;11.010;2023-06-04T09:05:04;18.10;34.80
39655;DHT22;25336;59.944;11.010;2023-06-04T09:07:30;18.20;34.70
39655;DHT22;25336;59.944;11.010;2023-06-04T09:09:57;18.20;34.70
39655;DHT22;25336;59.944;11.010;2023-06-04T09:12:24;19.00;34.60
39655;DHT22;25336;59.944;11.010;2023-06-04T09:14:51;18.30;34.20
39655;DHT22;25336;59.944;11.010;2023-06-04T09:17:23;18.40;34.40
39655;DHT22;25336;59.944;11.010;2023-06-04T09:19:50;19.20;34.10
39655;DHT22;25336;59.944;11.010;2023-06-04T09:22:16;18.50;33.10
39655;DHT22;25336;59.944;11.010;2023-06-04T09:24:47;18.70;33.40
39655;DHT22;25336;59.944;11.010;2023-06-04T09:27:19;18.60;33.00
39655;DHT22;25336;59.944;11.010;2023-06-04T09:29:57;18.70;32.90
39655;DHT22;25336;59.944;11.010;2023-06-04T09:32:27;18.70;32.90
39655;DHT22;25336;59.944;11.010;2023-06-04T09:35:11;18.80;32.70
39655;DHT22;25336;59.944;11.010;2023-06-04T09:37:38;18.90;33.20
39655;DHT22;25336;59.944;11.010;2023-06-04T09:40:05;19.00;33.00
39655;DHT22;25336;59.944;11.010;2023-06-04T09:42:42;19.10;32.00
39655;DHT22;25336;59.944;11.010;2023-06-04T09:45:08;19.10;31.70
39655;DHT22;25336;59.944;11.010;2023-06-04T09:47:44;19.20;32.00
39655;DHT22;25336;59.944;11.010;2023-06-04T09:50:13;19.30;31.80
39655;DHT22;25336;59.944;11.010;2023-06-04T09:52:38;18.80;30.90
39655;DHT22;25336;59.944;11.010;2023-06-04T09:55:16;19.40;31.80
39655;DHT22;25336;59.944;11.010;2023-06-04T09:57:46;19.40;31.00
39655;DHT22;25336;59.944;11.010;2023-06-04T10:00:16;19.40;31.30
39655;DHT22;25336;59.944;11.010;2023-06-04T10:02:43;19.50;31.60
39655;DHT22;25336;59.944;11.010;2023-06-04T10:05:11;19.60;30.90
39655;DHT22;25336;59.944;11.010;2023-06-04T10:07:41;19.60;31.00
39655;DHT22;25336;59.944;11.010;2023-06-04T10:10:11;19.70;31.10
39655;DHT22;25336;59.944;11.010;2023-06-04T10:12:37;19.70;31.00
39655;DHT22;25336;59.944;11.010;2023-06-04T10:15:10;19.80;31.30
39655;DHT22;25336;59.944;11.010;2023-06-04T10:17:36;21.10;32.30
39655;DHT22;25336;59.944;11.010;2023-06-04T10:20:02;19.90;31.90
39655;DHT22;25336;59.944;11.010;2023-06-04T10:22:31;20.00;30.80
39655;DHT22;25336;59.944;11.010;2023-06-04T10:24:58;20.10;30.40
39655;DHT22;25336;59.944;11.010;2023-06-04T10:27:24;20.10;31.20
39655;DHT22;25336;59.944;11.010;2023-06-04T10:29:50;20.20;30.90
39655;DHT22;25336;59.944;11.010;2023-06-04T10:32:18;21.30;31.40
39655;DHT22;25336;59.944;11.010;2023-06-04T10:34:44;21.10;31.30
39655;DHT22;25336;59.944;11.010;2023-06-04T10:37:23;20.30;30.90
39655;DHT22;25336;59.944;11.010;2023-06-04T10:39:55;20.30;30.40
39655;DHT22;25336;59.944;11.010;2023-06-04T10:42:22;20.40;30.50
39655;DHT22;25336;59.944;11.010;2023-06-04T10:44:50;20.40;30.60
39655;DHT22;25336;59.944;11.010;2023-06-04T10:47:26;20.50;30.80
39655;DHT22;25336;59.944;11.010;2023-06-04T10:49:53;20.50;31.20
39655;DHT22;25336;59.944;11.010;2023-06-04T10:52:19;20.60;30.90
39655;DHT22;25336;59.944;11.010;2023-06-04T10:54:46;21.70;31.40
39655;DHT22;25336;59.944;11.010;2023-06-04T10:57:17;20.70;30.50
39655;DHT22;25336;59.944;11.010;2023-06-04T10:59:56;20.80;30.40
39655;DHT22;25336;59.944;11.010;2023-06-04T11:02:23;20.90;30.00
39655;DHT22;25336;59.944;11.010;2023-06-04T11:05:08;21.00;31.30
39655;DHT22;25336;59.944;11.010;2023-06-04T11:07:42;21.10;30.60
39655;DHT22;25336;59.944;11.010;2023-06-04T11:10:09;21.10;30.00
39655;DHT22;25336;59.944;11.010;2023-06-04T11:12:49;21.20;30.20
39655;DHT22;25336;59.944;11.010;2023-06-04T11:15:18;21.20;30.00
39655;DHT22;25336;59.944;11.010;2023-06-04T11:17:55;21.30;30.10
39655;DHT22;25336;59.944;11.010;2023-06-04T11:20:24;21.30;29.60
39655;DHT22;25336;59.944;11.010;2023-06-04T11:22:51;21.40;30.10
39655;DHT22;25336;59.944;11.010;2023-06-04T11:25:17;21.50;29.90
39655;DHT22;25336;59.944;11.010;2023-06-04T11:27:43;21.50;29.80
39655;DHT22;25336;59.944;11.010;2023-06-04T11:30:09;21.50;29.80
39655;DHT22;25336;59.944;11.010;2023-06-04T11:32:34;21.50;29.70
39655;DHT22;25336;59.944;11.010;2023-06-04T11:35:06;21.60;29.80
39655;DHT22;25336;59.944;11.010;2023-06-04T11:37:32;21.70;29.10
39655;DHT22;25336;59.944;11.010;2023-06-04T11:39:59;21.70;29.40
39655;DHT22;25336;59.944;11.010;2023-06-04T11:42:29;21.70;29.30
39655;DHT22;25336;59.944;11.010;2023-06-04T11:44:58;21.70;29.30
39655;DHT22;25336;59.944;11.010;2023-06-04T11:47:24;22.60;29.60
39655;DHT22;25336;59.944;11.010;2023-06-04T11:49:56;22.20;29.60
39655;DHT22;25336;59.944;11.010;2023-06-04T11:52:23;21.80;29.00
39655;DHT22;25336;59.944;11.010;2023-06-04T11:54:48;21.80;29.10
39655;DHT22;25336;59.944;11.010;2023-06-04T11:57:14;21.90;29.20
39655;DHT22;25336;59.944;11.010;2023-06-04T11:59:40;22.10;29.10
39655;DHT22;25336;59.944;11.010;2023-06-04T12:02:07;22.00;29.40
39655;DHT22;25336;59.944;11.010;2023-06-04T12:04:33;22.00;29.50
39655;DHT22;25336;59.944;11.010;2023-06-04T12:07:00;22.10;29.70
39655;DHT22;25336;59.944;11.010;2023-06-04T12:09:29;22.10;29.40
39655;DHT22;25336;59.944;11.010;2023-06-04T12:12:03;22.20;29.40
39655;DHT22;25336;59.944;11.010;2023-06-04T12:14:29;22.30;29.60
39655;DHT22;25336;59.944;11.010;2023-06-04T12:17:00;22.40;29.50
39655;DHT22;25336;59.944;11.010;2023-06-04T12:19:27;22.40;29.70
39655;DHT22;25336;59.944;11.010;2023-06-04T12:22:04;22.50;29.40
39655;DHT22;25336;59.944;11.010;2023-06-04T12:24:46;22.50;29.40
39655;DHT22;25336;59.944;11.010;2023-06-04T12:27:12;22.60;29.70
39655;DHT22;25336;59.944;11.010;2023-06-04T12:29:37;22.70;29.80
39655;DHT22;25336;59.944;11.010;2023-06-04T12:32:05;22.80;29.20
39655;DHT22;25336;59.944;11.010;2023-06-04T12:34:36;22.80;28.80
39655;DHT22;25336;59.944;11.010;2023-06-04T12:37:02;22.90;28.40
39655;DHT22;25336;59.944;11.010;2023-06-04T12:39:29;22.90;28.50
39655;DHT22;25336;59.944;11.010;2023-06-04T12:41:55;23.00;28.80
39655;DHT22;25336;59.944;11.010;2023-06-04T12:44:21;23.00;28.80
39655;DHT22;25336;59.944;11.010;2023-06-04T12:46:47;23.00;29.40
39655;DHT22;25336;59.944;11.010;2023-06-04T12:49:12;23.10;29.30
39655;DHT22;25336;59.944;11.010;2023-06-04T12:51:38;23.10;28.60
39655;DHT22;25336;59.944;11.010;2023-06-04T12:54:04;23.20;28.50
39655;DHT22;25336;59.944;11.010;2023-06-04T12:56:30;23.20;28.20
39655;DHT22;25336;59.944;11.010;2023-06-04T12:58:56;23.30;28.10
39655;DHT22;25336;59.944;11.010;2023-06-04T13:01:22;23.40;28.40
39655;DHT22;25336;59.944;11.010;2023-06-04T13:03:48;24.10;29.10
39655;DHT22;25336;59.944;11.010;2023-06-04T13:06:13;23.40;28.50
39655;DHT22;25336;59.944;11.010;2023-06-04T13:08:39;23.50;28.70
39655;DHT22;25336;59.944;11.010;2023-06-04T13:11:05;23.50;29.30
39655;DHT22;25336;59.944;11.010;2023-06-04T13:13:31;23.60;28.90
39655;DHT22;25336;59.944;11.010;2023-06-04T13:15:57;24.20;29.30
39655;DHT22;25336;59.944;11.010;2023-06-04T13:18:23;23.80;29.40
39655;DHT22;25336;59.944;11.010;2023-06-04T13:20:49;24.10;29.80
39655;DHT22;25336;59.944;11.010;2023-06-04T13:23:15;24.00;29.10
39655;DHT22;25336;59.944;11.010;2023-06-04T13:25:40;24.00;28.40
39655;DHT22;25336;59.944;11.010;2023-06-04T13:28:06;24.10;28.10
39655;DHT22;25336;59.944;11.010;2023-06-04T13:30:35;24.10;27.90
39655;DHT22;25336;59.944;11.010;2023-06-04T13:33:01;24.10;27.70
39655;DHT22;25336;59.944;11.010;2023-06-04T13:35:27;24.20;27.90
39655;DHT22;25336;59.944;11.010;2023-06-04T13:37:52;24.20;27.70
39655;DHT22;25336;59.944;11.010;2023-06-04T13:40:18;24.20;27.50
39655;DHT22;25336;59.944;11.010;2023-06-04T13:42:44;24.00;27.60
39655;DHT22;25336;59.944;11.010;2023-06-04T13:45:10;24.30;27.90
39655;DHT22;25336;59.944;11.010;2023-06-04T13:47:36;24.30;28.00
39655;DHT22;25336;59.944;11.010;2023-06-04T13:50:02;24.30;28.50
39655;DHT22;25336;59.944;11.010;2023-06-04T13:52:29;24.50;28.50
39655;DHT22;25336;59.944;11.010;2023-06-04T13:54:55;24.60;27.90
39655;DHT22;25336;59.944;11.010;2023-06-04T13:57:21;24.70;27.30
39655;DHT22;25336;59.944;11.010;2023-06-04T13:59:48;24.70;27.10
39655;DHT22;25336;59.944;11.010;2023-06-04T14:02:14;24.80;26.90
39655;DHT22;25336;59.944;11.010;2023-06-04T14:04:40;24.80;27.70
39655;DHT22;25336;59.944;11.010;2023-06-04T14:07:06;24.90;27.20
39655;DHT22;25336;59.944;11.010;2023-06-04T14:09:32;24.90;27.20
39655;DHT22;25336;59.944;11.010;2023-06-04T14:11:58;24.90;26.70
39655;DHT22;25336;59.944;11.010;2023-06-04T14:14:24;25.00;27.10
39655;DHT22;25336;59.944;11.010;2023-06-04T14:16:50;24.90;26.70
39655;DHT22;25336;59.944;11.010;2023-06-04T14:19:16;24.90;26.60
39655;DHT22;25336;59.944;11.010;2023-06-04T14:21:43;25.00;26.80
39655;DHT22;25336;59.944;11.010;2023-06-04T14:24:08;25.00;26.40
39655;DHT22;25336;59.944;11.010;2023-06-04T14:26:35;25.00;26.70
39655;DHT22;25336;59.944;11.010;2023-06-04T14:29:01;25.00;26.60
39655;DHT22;25336;59.944;11.010;2023-06-04T14:31:27;25.00;26.90
39655;DHT22;25336;59.944;11.010;2023-06-04T14:33:52;25.10;27.20
39655;DHT22;25336;59.944;11.010;2023-06-04T14:36:18;25.10;27.30
39655;DHT22;25336;59.944;11.010;2023-06-04T14:38:44;25.60;27.30
39655;DHT22;25336;59.944;11.010;2023-06-04T14:41:14;25.30;27.40
39655;DHT22;25336;59.944;11.010;2023-06-04T14:43:40;25.40;27.50
39655;DHT22;25336;59.944;11.010;2023-06-04T14:46:06;25.40;27.10
39655;DHT22;25336;59.944;11.010;2023-06-04T14:48:32;25.50;26.80
39655;DHT22;25336;59.944;11.010;2023-06-04T14:50:57;25.60;26.80
39655;DHT22;25336;59.944;11.010;2023-06-04T14:53:23;25.60;27.10
39655;DHT22;25336;59.944;11.010;2023-06-04T14:55:49;25.70;26.90
39655;DHT22;25336;59.944;11.010;2023-06-04T14:58:15;25.70;26.50
39655;DHT22;25336;59.944;11.010;2023-06-04T15:00:44;25.80;26.70
39655;DHT22;25336;59.944;11.010;2023-06-04T15:03:10;25.80;26.70
39655;DHT22;25336;59.944;11.010;2023-06-04T15:05:36;25.90;26.80
39655;DHT22;25336;59.944;11.010;2023-06-04T15:08:02;26.00;26.70
39655;DHT22;25336;59.944;11.010;2023-06-04T15:10:28;26.00;26.80
39655;DHT22;25336;59.944;11.010;2023-06-04T15:12:55;26.10;26.20
39655;DHT22;25336;59.944;11.010;2023-06-04T15:15:22;26.20;26.30
39655;DHT22;25336;59.944;11.010;2023-06-04T15:17:48;26.20;26.50
39655;DHT22;25336;59.944;11.010;2023-06-04T15:20:14;26.30;26.20